Time;durP1;ratioP1;P1;durP2;ratioP2;P2;SDS_P1;SDS_P2;PMS_P1;PMS_P2;Temp;Humidity;BMP_temperature;BMP_pressure;BME280_temperature;BME280_humidity;BME280_pressure;Samples;Min_cycle;Max_cycle;Signal;HPM_P1;HPM_P2
2022/02/14 00:01:11;;;;;;;8.30;3.08;;;;;;;10.98;71.69;99910.91;5251234;28;20025;-73
2022/02/14 00:03:43;;;;;;;7.18;2.70;;;;;;;10.91;72.19;99902.84;5251440;28;20490;-73
2022/02/14 00:06:14;;;;;;;9.20;3.13;;;;;;;10.79;72.89;99902.28;5250726;28;20029;-73
2022/02/14 00:08:45;;;;;;;8.05;2.88;;;;;;;10.84;72.31;99899.22;5250743;28;20013;-73
2022/02/14 00:11:16;;;;;;;9.48;2.60;;;;;;;10.77;73.17;99891.16;5252402;28;20036;-73
2022/02/14 00:13:48;;;;;;;9.35;2.83;;;;;;;10.73;73.13;99899.50;5250807;28;20106;-73
2022/02/14 00:16:19;;;;;;;7.47;2.45;;;;;;;10.76;73.24;99894.75;5250813;28;20029;-73
2022/02/14 00:18:50;;;;;;;6.30;2.80;;;;;;;10.68;73.31;99884.22;5250852;28;20032;-73
2022/02/14 00:21:22;;;;;;;6.20;2.53;;;;;;;10.74;73.73;99894.09;5251359;28;20513;-73
2022/02/14 00:23:53;;;;;;;9.20;2.90;;;;;;;10.74;73.03;99888.84;5251126;28;20079;-72
2022/02/14 00:26:24;;;;;;;7.75;2.78;;;;;;;10.71;73.73;99883.91;5250636;28;20312;-72
2022/02/14 00:28:56;;;;;;;7.97;2.67;;;;;;;10.59;74.10;99861.56;5250521;28;20163;-73
2022/02/14 00:31:27;;;;;;;4.72;2.63;;;;;;;10.71;73.78;99878.66;5250508;28;20094;-73
2022/02/14 00:33:58;;;;;;;4.47;2.35;;;;;;;10.65;74.08;99866.19;5248790;28;20051;-73
2022/02/14 00:36:30;;;;;;;6.97;2.85;;;;;;;10.71;73.72;99871.63;5250718;28;20047;-72
2022/02/14 00:39:02;;;;;;;7.68;2.55;;;;;;;10.68;73.98;99868.50;5251622;28;20041;-72
2022/02/14 00:41:33;;;;;;;4.40;2.45;;;;;;;10.68;74.10;99866.72;5251511;28;20028;-71
2022/02/14 00:44:05;;;;;;;5.57;2.20;;;;;;;10.60;73.97;99850.09;5251341;28;20482;-71
2022/02/14 00:46:36;;;;;;;7.07;2.55;;;;;;;10.65;74.06;99869.63;5252170;28;20466;-71
2022/02/14 00:49:07;;;;;;;5.90;2.45;;;;;;;10.62;74.54;99853.41;5250522;28;20051;-71
2022/02/14 00:51:39;;;;;;;9.27;2.47;;;;;;;10.60;74.95;99844.88;5250422;28;20016;-71
2022/02/14 00:54:10;;;;;;;7.78;2.58;;;;;;;10.59;74.52;99845.84;5250449;28;20028;-72
2022/02/14 00:56:41;;;;;;;8.27;2.28;;;;;;;10.56;75.31;99846.97;5252099;28;20025;-72
2022/02/14 00:59:13;;;;;;;6.25;2.67;;;;;;;10.52;74.90;99832.56;5251278;28;20031;-72
2022/02/14 01:01:44;;;;;;;6.10;2.47;;;;;;;10.58;74.64;99833.75;5249803;28;20086;-71
2022/02/14 01:04:16;;;;;;;8.90;2.20;;;;;;;10.57;74.99;99822.44;5250136;28;20025;-71
2022/02/14 01:06:47;;;;;;;6.95;2.35;;;;;;;10.54;75.35;99814.91;5251107;28;20033;-72
2022/02/14 01:09:19;;;;;;;4.93;2.40;;;;;;;10.50;75.25;99816.19;5250853;28;20062;-72
2022/02/14 01:11:51;;;;;;;6.15;2.20;;;;;;;10.47;75.35;99806.84;5250406;28;20140;-73
2022/02/14 01:14:22;;;;;;;4.78;2.10;;;;;;;10.50;75.77;99805.72;5251109;28;20020;-72
2022/02/14 01:16:57;;;;;;;10.82;2.60;;;;;;;10.53;75.77;99802.78;5240751;28;20720;-72
2022/02/14 01:19:28;;;;;;;6.78;2.38;;;;;;;10.53;75.75;99801.94;5251074;28;20031;-72
2022/02/14 01:21:59;;;;;;;7.20;2.45;;;;;;;10.47;75.65;99788.50;5250276;28;20037;-72
2022/02/14 01:24:31;;;;;;;7.25;2.05;;;;;;;10.54;75.26;99780.03;5251387;28;20043;-72
2022/02/14 01:27:04;;;;;;;4.35;2.05;;;;;;;10.57;75.07;99782.31;5250068;28;20032;-72
2022/02/14 01:29:35;;;;;;;9.75;2.67;;;;;;;10.55;75.43;99772.00;5250896;28;20029;-72
2022/02/14 01:32:07;;;;;;;8.48;2.28;;;;;;;10.57;75.32;99762.22;5251053;28;20047;-72
2022/02/14 01:34:38;;;;;;;4.78;2.28;;;;;;;10.60;75.29;99764.50;5250025;28;20050;-71
2022/02/14 01:37:09;;;;;;;5.35;2.00;;;;;;;10.63;75.87;99760.75;5248681;28;20035;-73
2022/02/14 01:39:41;;;;;;;6.38;2.30;;;;;;;10.67;75.06;99751.59;5248743;28;20036;-73
2022/02/14 01:42:14;;;;;;;7.10;2.17;;;;;;;10.74;74.97;99750.00;5249875;28;20078;-73
2022/02/14 01:44:49;;;;;;;6.87;1.90;;;;;;;10.75;75.11;99754.25;5251170;28;20044;-72
2022/02/14 01:47:23;;;;;;;8.40;2.10;;;;;;;10.81;75.08;99742.34;5249280;28;20120;-73
2022/02/14 01:49:54;;;;;;;6.90;2.22;;;;;;;10.80;74.97;99733.66;5249417;28;20039;-72
2022/02/14 01:52:29;;;;;;;8.48;2.40;;;;;;;10.83;74.58;99733.31;5251619;28;20497;-72
2022/02/14 01:55:03;;;;;;;7.25;2.40;;;;;;;10.85;74.30;99734.00;5250677;28;20029;-73
2022/02/14 01:57:35;;;;;;;7.03;2.33;;;;;;;10.89;74.23;99732.69;5250749;28;20044;-72
2022/02/14 02:00:10;;;;;;;6.22;1.80;;;;;;;10.99;74.15;99721.25;5251074;28;20167;-72
2022/02/14 02:02:42;;;;;;;5.18;2.15;;;;;;;11.00;73.87;99715.03;5251095;28;20029;-72
2022/02/14 02:05:13;;;;;;;7.55;3.05;;;;;;;11.00;73.61;99715.03;5250359;28;20485;-72
2022/02/14 02:07:45;;;;;;;6.70;2.55;;;;;;;11.02;73.39;99715.69;5248781;28;20024;-72
2022/02/14 02:10:17;;;;;;;5.80;1.98;;;;;;;10.95;73.98;99705.03;5249457;28;20446;-72
2022/02/14 02:12:54;;;;;;;5.90;2.05;;;;;;;10.99;73.89;99706.34;5250675;28;20032;-73
2022/02/14 02:15:26;;;;;;;6.32;2.03;;;;;;;11.02;73.69;99705.19;5250302;28;20414;-72
2022/02/14 02:17:58;;;;;;;7.95;2.25;;;;;;;11.01;73.52;99707.00;5248740;28;20071;-72
2022/02/14 02:20:29;;;;;;;7.80;2.00;;;;;;;11.01;73.11;99700.94;5251597;28;20040;-73
2022/02/14 02:23:01;;;;;;;8.48;2.10;;;;;;;11.05;73.09;99697.00;5251822;28;20120;-72
2022/02/14 02:25:32;;;;;;;6.50;2.20;;;;;;;11.02;73.40;99692.09;5250797;28;20017;-72
2022/02/14 02:28:03;;;;;;;6.07;2.20;;;;;;;10.98;73.36;99688.97;5250033;28;20101;-72
2022/02/14 02:30:35;;;;;;;8.68;2.08;;;;;;;10.98;73.82;99690.78;5249976;28;20024;-73
2022/02/14 02:33:06;;;;;;;5.80;2.25;;;;;;;11.00;73.79;99680.97;5250306;28;20052;-72
2022/02/14 02:35:37;;;;;;;7.20;2.17;;;;;;;11.00;73.75;99681.78;5250094;28;20297;-72
2022/02/14 02:38:08;;;;;;;6.78;2.10;;;;;;;11.02;73.43;99665.88;5250222;28;20110;-72
2022/02/14 02:40:40;;;;;;;5.78;2.00;;;;;;;11.09;73.07;99669.50;5249335;28;20028;-72
2022/02/14 02:43:11;;;;;;;5.57;1.98;;;;;;;11.04;73.24;99661.31;5248471;28;20055;-72
2022/02/14 02:45:43;;;;;;;5.28;1.70;;;;;;;11.05;73.09;99657.69;5249633;28;20399;-72
2022/02/14 02:48:14;;;;;;;5.77;1.80;;;;;;;11.02;73.83;99658.84;5250508;28;20410;-72
2022/02/14 02:51:05;;;;;;;9.40;2.55;;;;;;;10.99;73.77;99653.13;5251095;28;20028;-72
2022/02/14 02:53:36;;;;;;;9.32;2.55;;;;;;;10.96;73.72;99660.31;5252630;28;20025;-72
2022/02/14 02:56:07;;;;;;;6.47;2.10;;;;;;;10.98;73.15;99654.09;5252450;28;20025;-72
2022/02/14 02:58:38;;;;;;;9.13;1.92;;;;;;;10.98;74.07;99656.72;5252811;28;20082;-72
2022/02/14 03:01:10;;;;;;;7.90;2.03;;;;;;;10.97;74.13;99653.28;5254915;28;20090;-72
2022/02/14 03:03:41;;;;;;;6.95;1.92;;;;;;;10.97;74.03;99642.78;5253788;28;20485;-72
2022/02/14 03:06:12;;;;;;;4.25;1.60;;;;;;;10.99;74.07;99640.84;5250020;28;20116;-73
2022/02/14 03:08:44;;;;;;;8.02;1.95;;;;;;;11.02;74.11;99643.13;5253878;28;20016;-72
2022/02/14 03:11:18;;;;;;;7.80;1.50;;;;;;;11.09;73.53;99635.44;5254024;28;20021;-72
2022/02/14 03:13:51;;;;;;;7.63;2.00;;;;;;;11.07;73.79;99635.59;5253394;28;20064;-72
2022/02/14 03:16:23;;;;;;;6.85;1.80;;;;;;;11.13;73.57;99632.31;5230913;28;20371;-72
2022/02/14 03:18:55;;;;;;;3.60;1.77;;;;;;;11.16;72.95;99633.78;5252678;28;20060;-72
2022/02/14 03:21:26;;;;;;;6.13;1.98;;;;;;;11.13;73.26;99626.25;5252454;28;20041;-72
2022/02/14 03:23:57;;;;;;;3.92;1.38;;;;;;;11.16;72.91;99621.50;5252859;28;20033;-72
2022/02/14 03:26:29;;;;;;;3.90;1.73;;;;;;;11.11;73.29;99618.56;5252984;28;20068;-72
2022/02/14 03:29:01;;;;;;;5.20;1.80;;;;;;;11.16;73.36;99618.88;5252623;28;20029;-72
2022/02/14 03:31:33;;;;;;;4.75;1.73;;;;;;;11.21;72.60;99613.13;5252047;28;20423;-72
2022/02/14 03:34:04;;;;;;;5.63;1.85;;;;;;;11.19;72.68;99615.13;5253556;28;20027;-72
2022/02/14 03:36:36;;;;;;;6.22;1.73;;;;;;;11.19;73.01;99621.19;5251315;28;20098;-72
2022/02/14 03:39:07;;;;;;;7.45;2.13;;;;;;;11.18;72.99;99595.13;5253234;28;20035;-72
2022/02/14 03:41:39;;;;;;;6.93;1.88;;;;;;;11.21;73.10;99600.03;5251551;28;20108;-72
2022/02/14 03:44:10;;;;;;;5.35;1.77;;;;;;;11.23;73.07;99603.31;5251669;28;20033;-72
2022/02/14 03:46:42;;;;;;;4.63;1.50;;;;;;;11.22;73.10;99590.41;5252098;28;20155;-72
2022/02/14 03:49:13;;;;;;;6.35;1.75;;;;;;;11.20;72.84;99593.97;5251805;28;20033;-72
2022/02/14 03:51:44;;;;;;;5.68;1.80;;;;;;;11.21;73.06;99592.16;5251815;28;20106;-72
2022/02/14 03:54:16;;;;;;;3.35;1.50;;;;;;;11.23;73.00;99590.22;5252869;28;20502;-72
2022/02/14 03:56:47;;;;;;;4.30;1.63;;;;;;;11.18;73.49;99595.13;5252475;28;20064;-72
2022/02/14 03:59:18;;;;;;;5.15;2.22;;;;;;;11.20;73.20;99582.66;5251868;28;20528;-72
2022/02/14 04:01:50;;;;;;;4.40;1.77;;;;;;;11.21;73.75;99576.44;5250692;28;20072;-72
2022/02/14 04:04:21;;;;;;;3.17;1.63;;;;;;;11.16;73.59;99584.00;5251308;28;20307;-72
2022/02/14 04:06:52;;;;;;;5.90;1.70;;;;;;;11.22;73.59;99582.53;5251834;28;20062;-72
2022/02/14 04:09:24;;;;;;;5.13;1.73;;;;;;;11.17;73.59;99573.34;5253106;28;20029;-72
2022/02/14 04:11:55;;;;;;;7.05;1.80;;;;;;;11.18;73.66;99582.84;5251786;28;20028;-72
2022/02/14 04:14:26;;;;;;;7.38;2.25;;;;;;;11.19;73.78;99588.91;5252545;28;20461;-72
2022/02/14 04:16:58;;;;;;;3.28;1.50;;;;;;;11.19;73.72;99578.41;5250768;28;20029;-72
2022/02/14 04:19:29;;;;;;;3.55;1.60;;;;;;;11.19;73.91;99583.66;5252316;28;20029;-72
2022/02/14 04:22:00;;;;;;;8.45;1.80;;;;;;;11.18;74.02;99579.41;5253048;28;20048;-72
2022/02/14 04:24:31;;;;;;;3.83;1.55;;;;;;;11.17;73.60;99581.22;5251703;28;20043;-72
2022/02/14 04:27:03;;;;;;;4.72;1.40;;;;;;;11.15;74.11;99577.13;5252147;28;20028;-72
2022/02/14 04:29:34;;;;;;;4.15;1.60;;;;;;;11.19;73.98;99581.84;5250760;28;20033;-72
2022/02/14 04:32:06;;;;;;;3.80;1.98;;;;;;;11.12;74.14;99583.50;5251135;28;20025;-72
2022/02/14 04:34:38;;;;;;;7.63;1.73;;;;;;;11.19;74.09;99583.66;5252373;28;20482;-72
2022/02/14 04:37:09;;;;;;;6.57;1.85;;;;;;;11.24;73.95;99583.97;5252673;28;20042;-72
2022/02/14 04:39:40;;;;;;;4.25;2.08;;;;;;;11.21;74.46;99584.31;5253036;28;20028;-72
2022/02/14 04:42:11;;;;;;;5.78;1.65;;;;;;;11.19;74.81;99581.03;5251774;28;20035;-72
2022/02/14 04:44:43;;;;;;;3.45;1.52;;;;;;;11.18;75.10;99582.03;5251590;28;20166;-72
2022/02/14 04:47:14;;;;;;;5.65;1.55;;;;;;;11.20;74.82;99585.28;5251150;28;20037;-72
2022/02/14 04:49:46;;;;;;;3.40;1.55;;;;;;;11.19;74.98;99586.28;5250860;28;20025;-72
2022/02/14 04:52:17;;;;;;;4.45;1.60;;;;;;;11.23;75.25;99581.53;5250252;28;20036;-72
2022/02/14 04:54:48;;;;;;;4.28;1.35;;;;;;;11.21;75.32;99581.69;5250276;28;20673;-72
2022/02/14 04:57:20;;;;;;;5.53;1.70;;;;;;;11.25;75.14;99577.78;5250043;28;20029;-72
2022/02/14 04:59:51;;;;;;;4.60;1.70;;;;;;;11.23;75.44;99579.72;5251472;28;20039;-72
2022/02/14 05:02:22;;;;;;;5.68;1.90;;;;;;;11.29;75.43;99578.22;5250712;28;20054;-72
2022/02/14 05:04:53;;;;;;;4.05;1.73;;;;;;;11.27;76.70;99570.53;5249768;28;20079;-72
2022/02/14 05:07:25;;;;;;;6.88;1.85;;;;;;;11.24;77.88;99567.44;5249168;28;20112;-72
2022/02/14 05:09:56;;;;;;;4.40;1.48;;;;;;;11.26;78.42;99565.47;5251772;28;20487;-72
2022/02/14 05:12:27;;;;;;;3.33;1.30;;;;;;;11.20;79.53;99564.31;5251263;28;20058;-72
2022/02/14 05:14:59;;;;;;;2.88;1.50;;;;;;;11.27;78.29;99570.53;5251786;28;20051;-72
2022/02/14 05:17:30;;;;;;;3.35;1.52;;;;;;;11.22;79.02;99554.50;5251198;28;20454;-72
2022/02/14 05:20:04;;;;;;;4.10;1.63;;;;;;;11.26;78.84;99576.78;5250200;28;20067;-72
2022/02/14 05:22:35;;;;;;;5.22;1.92;;;;;;;11.29;78.70;99565.97;5248905;28;20056;-72
2022/02/14 05:25:07;;;;;;;2.97;1.50;;;;;;;11.30;78.60;99572.84;5249547;28;20438;-72
2022/02/14 05:27:38;;;;;;;4.18;2.35;;;;;;;11.29;78.29;99565.97;5250926;28;20017;-72
2022/02/14 05:30:10;;;;;;;4.82;1.50;;;;;;;11.30;78.84;99575.47;5249797;28;20033;-72
2022/02/14 05:32:41;;;;;;;6.47;1.63;;;;;;;11.37;77.94;99570.38;5249707;28;20021;-72
2022/02/14 05:35:12;;;;;;;5.45;1.40;;;;;;;11.34;78.55;99557.59;5250911;28;20719;-72
2022/02/14 05:37:43;;;;;;;4.75;1.83;;;;;;;11.39;78.23;99563.16;5252037;28;20025;-72
2022/02/14 05:40:15;;;;;;;3.33;1.45;;;;;;;11.40;77.92;99578.75;5252143;28;20371;-72
2022/02/14 05:42:46;;;;;;;4.28;1.38;;;;;;;11.41;78.12;99576.94;5249850;28;20020;-72
2022/02/14 05:45:18;;;;;;;6.05;1.83;;;;;;;11.33;78.15;99569.06;5249331;28;20029;-73
2022/02/14 05:47:49;;;;;;;4.93;1.35;;;;;;;11.40;78.33;99564.78;5249990;28;20393;-73
2022/02/14 05:50:20;;;;;;;5.35;1.60;;;;;;;11.34;78.16;99545.31;5249546;28;20414;-73
2022/02/14 05:52:52;;;;;;;4.70;1.55;;;;;;;11.42;78.47;99568.06;5249888;28;20152;-73
2022/02/14 05:55:23;;;;;;;4.60;1.52;;;;;;;11.41;78.77;99574.31;5248419;28;20508;-72
2022/02/14 05:57:54;;;;;;;4.68;1.58;;;;;;;11.43;78.48;99565.28;5260645;28;20025;-72
2022/02/14 06:00:25;;;;;;;4.53;1.80;;;;;;;11.47;78.64;99571.00;5248491;28;20064;-73
2022/02/14 06:02:57;;;;;;;3.83;1.40;;;;;;;11.50;78.47;99573.28;5249009;28;20033;-73
2022/02/14 06:05:28;;;;;;;4.07;1.60;;;;;;;11.45;78.23;99559.88;5250051;28;20031;-72
2022/02/14 06:07:59;;;;;;;2.97;1.50;;;;;;;11.48;78.94;99567.41;5250021;28;20048;-72
2022/02/14 06:10:30;;;;;;;3.40;1.52;;;;;;;11.56;78.69;99570.00;5250022;28;20104;-73
2022/02/14 06:13:02;;;;;;;3.33;1.42;;;;;;;11.59;78.72;99566.22;5233231;28;20022;-73
2022/02/14 06:15:33;;;;;;;4.28;1.95;;;;;;;11.48;78.29;99556.91;5246680;28;20104;-72
2022/02/14 06:18:05;;;;;;;5.72;1.63;;;;;;;11.62;78.65;99579.00;5250156;28;20171;-72
2022/02/14 06:20:36;;;;;;;5.35;1.70;;;;;;;11.57;78.92;99582.13;5242894;28;20034;-72
2022/02/14 06:23:08;;;;;;;3.58;1.58;;;;;;;11.60;78.94;99581.00;5250798;28;20052;-72
2022/02/14 06:25:39;;;;;;;6.72;1.80;;;;;;;11.58;78.93;99582.94;5252724;28;20024;-72
2022/02/14 06:28:11;;;;;;;8.05;2.08;;;;;;;11.62;79.04;99584.25;5254555;28;20033;-72
2022/02/14 06:30:45;;;;;;;7.57;1.88;;;;;;;11.68;78.50;99583.59;5254220;28;20025;-73
2022/02/14 06:33:17;;;;;;;5.38;1.70;;;;;;;11.70;78.83;99592.09;5253455;28;20033;-72
2022/02/14 06:35:48;;;;;;;4.07;1.70;;;;;;;11.68;78.66;99591.47;5254995;28;20037;-72
2022/02/14 06:38:19;;;;;;;2.92;1.40;;;;;;;11.71;79.28;99596.38;5253050;28;20067;-72
2022/02/14 06:40:50;;;;;;;3.90;1.50;;;;;;;11.72;79.15;99603.25;5254455;28;20033;-72
2022/02/14 06:43:23;;;;;;;5.65;1.50;;;;;;;11.68;79.11;99587.03;5252907;28;20036;-72
2022/02/14 06:45:54;;;;;;;2.50;1.33;;;;;;;11.74;78.76;99597.81;5254427;28;20025;-73
2022/02/14 06:48:26;;;;;;;3.50;1.50;;;;;;;11.69;79.37;99599.16;5252725;28;20025;-71
2022/02/14 06:50:57;;;;;;;5.18;1.85;;;;;;;11.69;80.14;99601.78;5253239;28;20037;-71
2022/02/14 06:53:29;;;;;;;3.15;1.63;;;;;;;11.63;80.51;99605.09;5256016;28;20036;-72
2022/02/14 06:56:05;;;;;;;4.78;1.60;;;;;;;11.68;80.61;99610.63;5253265;28;20901;-73
2022/02/14 06:58:38;;;;;;;3.72;1.40;;;;;;;11.60;81.19;99610.66;5249627;28;20067;-72
2022/02/14 07:01:09;;;;;;;5.53;1.30;;;;;;;11.64;81.20;99617.22;5251657;28;20107;-72
2022/02/14 07:03:40;;;;;;;4.38;1.70;;;;;;;11.66;81.05;99620.47;5255162;28;20482;-72
2022/02/14 07:06:12;;;;;;;5.95;1.38;;;;;;;11.72;80.69;99624.25;5252033;28;20670;-72
2022/02/14 07:08:44;;;;;;;5.15;1.50;;;;;;;11.60;81.72;99623.78;5253532;28;20046;-72
2022/02/14 07:11:15;;;;;;;4.95;1.55;;;;;;;11.65;81.80;99624.09;5255183;28;20482;-72
2022/02/14 07:13:46;;;;;;;3.83;1.55;;;;;;;11.60;83.90;99636.91;5253703;28;20124;-72
2022/02/14 07:16:18;;;;;;;5.00;1.45;;;;;;;11.51;86.24;99629.19;5252613;28;20033;-72
2022/02/14 07:18:49;;;;;;;3.30;1.60;;;;;;;11.55;87.59;99652.28;5253188;28;20707;-72
2022/02/14 07:21:20;;;;;;;4.30;1.40;;;;;;;11.51;87.96;99653.59;5254387;28;20036;-72
2022/02/14 07:23:52;;;;;;;4.88;1.83;;;;;;;11.35;88.95;99667.56;5254544;28;20029;-72
2022/02/14 07:26:24;;;;;;;3.45;1.75;;;;;;;11.39;88.86;99660.19;5253626;28;20112;-73
2022/02/14 07:28:56;;;;;;;4.53;1.40;;;;;;;11.35;89.49;99683.28;5249860;28;20048;-72
2022/02/14 07:31:27;;;;;;;6.00;1.80;;;;;;;11.33;90.58;99685.28;5249895;28;20539;-72
2022/02/14 07:33:58;;;;;;;3.50;1.50;;;;;;;11.28;92.80;99678.84;5253759;28;20059;-72
2022/02/14 07:36:33;;;;;;;4.25;1.85;;;;;;;11.22;96.21;99685.59;5249865;28;20036;-72
2022/02/14 07:39:04;;;;;;;3.58;1.50;;;;;;;11.12;99.88;99682.28;5251335;28;20021;-72
2022/02/14 07:41:36;;;;;;;5.22;1.70;;;;;;;11.05;100.00;99708.31;5252182;28;20059;-72
2022/02/14 07:44:07;;;;;;;5.65;1.70;;;;;;;10.91;100.00;99699.28;5252105;28;20017;-72
2022/02/14 07:46:39;;;;;;;2.20;1.45;;;;;;;10.84;100.00;99706.16;5244624;28;20025;-72
2022/02/14 07:49:10;;;;;;;3.65;1.50;;;;;;;10.77;100.00;99714.81;5249053;28;20323;-72
2022/02/14 07:51:41;;;;;;;2.70;1.58;;;;;;;10.73;100.00;99734.44;5249864;28;20091;-72
2022/02/14 07:54:13;;;;;;;3.90;1.90;;;;;;;10.65;100.00;99738.69;5250140;28;20043;-72
2022/02/14 07:56:45;;;;;;;4.32;1.80;;;;;;;10.56;100.00;99741.41;5251163;28;20029;-72
2022/02/14 07:59:16;;;;;;;5.32;2.13;;;;;;;10.44;100.00;99748.72;5252487;28;20276;-73
2022/02/14 08:01:47;;;;;;;3.30;1.65;;;;;;;10.40;100.00;99752.63;5250916;28;20032;-72
2022/02/14 08:04:20;;;;;;;2.15;1.48;;;;;;;10.31;100.00;99762.25;5250182;28;20497;-72
2022/02/14 08:06:51;;;;;;;3.93;1.63;;;;;;;10.21;100.00;99757.06;5250781;28;20036;-72
2022/02/14 08:09:22;;;;;;;3.97;2.00;;;;;;;10.23;100.00;99762.16;5251850;28;20025;-72
2022/02/14 08:11:53;;;;;;;3.65;1.52;;;;;;;10.14;100.00;99744.75;5250500;28;20136;-72
2022/02/14 08:14:25;;;;;;;4.18;2.10;;;;;;;10.26;100.00;99774.94;5250250;28;20421;-72
2022/02/14 08:16:56;;;;;;;4.40;1.65;;;;;;;10.20;100.00;99765.09;5251617;28;20035;-72
2022/02/14 08:19:28;;;;;;;4.97;1.63;;;;;;;10.22;100.00;99784.06;5251705;28;20032;-72
2022/02/14 08:21:59;;;;;;;3.05;1.52;;;;;;;10.15;100.00;99783.03;5252764;28;20091;-72
2022/02/14 08:24:30;;;;;;;2.83;1.58;;;;;;;10.19;100.00;99789.59;5252743;28;20439;-72
2022/02/14 08:27:03;;;;;;;5.43;1.60;;;;;;;10.13;100.00;99793.66;5250227;28;20075;-72
2022/02/14 08:29:35;;;;;;;2.42;1.30;;;;;;;10.12;100.00;99804.28;5251824;28;20520;-72
2022/02/14 08:32:06;;;;;;;1.77;1.20;;;;;;;10.12;100.00;99812.97;5253480;28;20029;-72
2022/02/14 08:34:38;;;;;;;2.85;1.38;;;;;;;10.17;100.00;99815.94;5251110;28;20032;-72
2022/02/14 08:37:14;;;;;;;4.72;1.23;;;;;;;10.20;100.00;99822.66;5251680;28;20043;-72
2022/02/14 08:39:45;;;;;;;2.38;1.13;;;;;;;10.17;100.00;99828.19;5253517;28;20490;-72
2022/02/14 08:42:17;;;;;;;2.78;1.17;;;;;;;10.08;100.00;99829.94;5252662;28;20032;-72
2022/02/14 08:44:48;;;;;;;2.42;0.93;;;;;;;9.88;100.00;99837.13;5253032;28;20051;-72
2022/02/14 08:47:19;;;;;;;1.50;0.73;;;;;;;9.79;100.00;99840.63;5249666;28;20025;-73
2022/02/14 08:49:50;;;;;;;1.77;0.82;;;;;;;9.68;100.00;99840.88;5251782;28;20111;-73
2022/02/14 08:52:25;;;;;;;1.42;0.70;;;;;;;9.68;100.00;99838.25;5250822;28;20021;-73
2022/02/14 08:54:57;;;;;;;1.45;0.77;;;;;;;9.54;100.00;99849.22;5252270;28;20436;-73
2022/02/14 08:57:28;;;;;;;2.35;0.68;;;;;;;9.65;100.00;99859.47;5251518;28;20074;-73
2022/02/14 08:59:59;;;;;;;2.05;0.60;;;;;;;9.51;100.00;99850.34;5251718;28;20094;-73
2022/02/14 09:02:31;;;;;;;2.35;0.52;;;;;;;9.52;100.00;99867.69;5250804;28;20057;-73
2022/02/14 09:05:02;;;;;;;1.20;0.52;;;;;;;9.46;100.00;99870.88;5253287;28;20028;-72
2022/02/14 09:07:34;;;;;;;1.42;0.60;;;;;;;9.45;100.00;99872.66;5243612;28;20025;-73
2022/02/14 09:10:05;;;;;;;1.65;0.65;;;;;;;9.49;100.00;99871.41;5252866;28;20039;-73
2022/02/14 09:12:37;;;;;;;1.08;0.57;;;;;;;9.58;100.00;99863.63;5250074;28;20028;-73
2022/02/14 09:15:09;;;;;;;1.60;0.80;;;;;;;9.57;100.00;99875.88;5251227;28;20031;-74
2022/02/14 09:17:40;;;;;;;1.98;0.90;;;;;;;9.71;100.00;99877.19;5250640;28;20044;-73
2022/02/14 09:20:12;;;;;;;2.28;0.82;;;;;;;9.73;100.00;99876.03;5252191;28;20024;-72
2022/02/14 09:22:43;;;;;;;2.10;0.88;;;;;;;9.85;100.00;99886.28;5252703;28;20117;-73
2022/02/14 09:25:14;;;;;;;4.22;0.95;;;;;;;9.84;100.00;99874.19;5251410;28;20397;-72
2022/02/14 09:27:45;;;;;;;1.42;0.90;;;;;;;9.92;100.00;99898.63;5251901;28;20429;-73
2022/02/14 09:30:17;;;;;;;2.28;1.15;;;;;;;9.98;100.00;99895.44;5249917;28;20029;-73
2022/02/14 09:32:49;;;;;;;1.60;0.90;;;;;;;10.01;100.00;99901.34;5249894;28;20025;-73
2022/02/14 09:35:26;;;;;;;2.35;0.98;;;;;;;10.13;100.00;99897.53;5250477;28;20021;-73
2022/02/14 09:37:59;;;;;;;1.30;0.88;;;;;;;10.21;100.00;99900.22;5250014;28;20029;-73
2022/02/14 09:40:32;;;;;;;1.73;1.10;;;;;;;10.29;100.00;99899.47;5250922;28;20039;-73
2022/02/14 09:43:04;;;;;;;1.58;1.00;;;;;;;10.20;100.00;99895.97;5251101;28;20056;-73
2022/02/14 09:45:36;;;;;;;2.58;1.20;;;;;;;10.16;100.00;99908.53;5251119;28;20648;-72
2022/02/14 09:48:10;;;;;;;2.22;1.38;;;;;;;10.18;100.00;99908.34;5250622;28;20071;-73
2022/02/14 09:50:42;;;;;;;1.80;1.27;;;;;;;10.11;100.00;99910.75;5251490;28;20260;-73
2022/02/14 09:53:15;;;;;;;2.97;1.85;;;;;;;10.13;100.00;99908.81;5251923;28;20028;-72
2022/02/14 09:55:47;;;;;;;2.58;1.55;;;;;;;10.16;100.00;99898.06;5250719;28;20095;-72
2022/02/14 09:58:19;;;;;;;2.63;1.57;;;;;;;10.19;100.00;99908.22;5250369;28;20478;-73
2022/02/14 10:00:51;;;;;;;2.88;1.48;;;;;;;10.15;100.00;99914.72;5252595;28;20361;-73
2022/02/14 10:03:23;;;;;;;4.75;1.83;;;;;;;10.14;100.00;99918.31;5255184;28;20028;-73
2022/02/14 10:05:57;;;;;;;4.87;1.73;;;;;;;10.24;100.00;99907.75;5257202;28;20032;-72
2022/02/14 10:08:35;;;;;;;3.63;1.58;;;;;;;10.22;100.00;99901.84;5255760;28;20282;-72
2022/02/14 10:11:16;;;;;;;3.35;1.65;;;;;;;10.37;100.00;99908.22;5254986;28;20029;-72
2022/02/14 10:13:51;;;;;;;4.93;1.63;;;;;;;10.27;100.00;99922.38;5254465;28;20032;-72
2022/02/14 10:16:24;;;;;;;3.40;2.22;;;;;;;10.32;100.00;99928.81;5255317;28;20411;-72
2022/02/14 10:18:55;;;;;;;4.03;2.15;;;;;;;10.33;100.00;99919.16;5255336;28;20039;-72
2022/02/14 10:21:28;;;;;;;3.42;2.00;;;;;;;10.53;100.00;99932.88;5255285;28;20044;-73
2022/02/14 10:24:08;;;;;;;2.95;1.73;;;;;;;10.57;100.00;99931.59;5254048;28;20063;-73
2022/02/14 10:26:45;;;;;;;4.63;2.03;;;;;;;10.69;100.00;99938.25;5254320;28;20033;-72
2022/02/14 10:29:22;;;;;;;2.60;1.52;;;;;;;10.72;100.00;99945.81;5254135;28;20402;-72
2022/02/14 10:31:56;;;;;;;5.85;2.08;;;;;;;10.88;100.00;99948.53;5254846;28;20478;-72
2022/02/14 10:34:41;;;;;;;3.40;1.63;;;;;;;10.99;100.00;99965.00;5255211;28;20032;-72
2022/02/14 10:37:15;;;;;;;5.22;2.15;;;;;;;10.91;100.00;99963.97;5248713;28;20036;-72
2022/02/14 10:39:46;;;;;;;5.55;1.80;;;;;;;10.88;100.00;99969.50;5252408;28;20725;-72
2022/02/14 10:42:19;;;;;;;4.70;2.05;;;;;;;10.86;100.00;99976.69;5252258;28;20025;-72
2022/02/14 10:45:11;;;;;;;3.80;1.35;;;;;;;10.89;100.00;99978.19;5253361;28;20367;-72
2022/02/14 10:47:46;;;;;;;4.45;1.88;;;;;;;10.85;100.00;99984.72;5253636;28;20020;-72
2022/02/14 10:50:26;;;;;;;3.63;1.50;;;;;;;10.87;100.00;99978.34;5253624;28;20037;-72
2022/02/14 10:53:01;;;;;;;3.15;1.48;;;;;;;10.90;100.00;99983.25;5254240;28;20025;-72
2022/02/14 10:55:37;;;;;;;4.95;1.50;;;;;;;10.90;100.00;99993.75;5253665;28;20028;-72
2022/02/14 10:58:10;;;;;;;3.42;1.33;;;;;;;10.83;100.00;99992.72;5254612;28;20127;-72
2022/02/14 11:00:41;;;;;;;2.55;1.10;;;;;;;10.81;100.00;99989.44;5254018;28;20083;-72
2022/02/14 11:03:13;;;;;;;4.60;1.42;;;;;;;10.84;100.00;100004.03;5254726;28;20033;-72
2022/02/14 11:05:44;;;;;;;2.60;1.10;;;;;;;10.84;100.00;100001.41;5254512;28;20481;-72
2022/02/14 11:08:18;;;;;;;2.75;1.13;;;;;;;10.88;100.00;100003.56;5253783;28;20586;-72
2022/02/14 11:10:52;;;;;;;2.85;1.15;;;;;;;10.84;100.00;100015.34;5253290;28;20294;-72
2022/02/14 11:13:24;;;;;;;3.35;1.05;;;;;;;10.88;100.00;100013.25;5254122;28;20546;-72
2022/02/14 11:15:58;;;;;;;3.20;0.90;;;;;;;10.88;100.00;100005.38;5255328;28;20024;-72
2022/02/14 11:18:32;;;;;;;2.10;0.80;;;;;;;10.86;100.00;100010.75;5252345;28;20033;-73
2022/02/14 11:21:04;;;;;;;3.33;1.00;;;;;;;10.94;100.00;100020.47;5254973;28;20045;-73
2022/02/14 11:23:50;;;;;;;2.45;0.98;;;;;;;11.07;100.00;100026.16;5252871;28;20036;-72
2022/02/14 11:27:02;;;;;;;5.30;0.90;;;;;;;11.30;100.00;100025.66;5252344;28;20028;-72
2022/02/14 11:29:58;;;;;;;3.00;0.90;;;;;;;11.08;100.00;100019.09;5204628;28;20026;-72
2022/02/14 11:32:29;;;;;;;4.65;0.90;;;;;;;11.04;100.00;100025.63;5205963;28;20112;-72
2022/02/14 11:35:12;;;;;;;3.08;0.93;;;;;;;11.05;100.00;100027.28;5238837;28;20044;-72
2022/02/14 11:37:54;;;;;;;4.10;1.10;;;;;;;11.22;100.00;100030.84;5252508;28;20060;-72
2022/02/14 11:40:35;;;;;;;2.20;0.80;;;;;;;11.27;100.00;100029.38;5247200;28;20095;-72
2022/02/14 11:43:07;;;;;;;2.95;1.10;;;;;;;11.18;100.00;100028.53;5249516;28;20405;-71
2022/02/14 11:45:40;;;;;;;3.43;1.10;;;;;;;11.16;100.00;100030.47;5251317;28;20031;-72
2022/02/14 11:48:27;;;;;;;2.47;0.90;;;;;;;11.32;100.00;100031.53;5251680;28;20108;-72
2022/02/14 11:51:08;;;;;;;3.60;1.38;;;;;;;11.35;100.00;100034.69;5251171;28;20024;-73
2022/02/14 11:53:45;;;;;;;2.17;0.80;;;;;;;11.39;100.00;100022.91;5250568;28;20040;-71